createdAt,value
2019-02-25T00:00:17.270Z,42.60
2019-02-25T00:02:47.456Z,41.70
2019-02-25T00:05:17.815Z,41.70
2019-02-25T00:07:48.008Z,42.10
2019-02-25T00:10:18.169Z,42.70
2019-02-25T00:12:48.348Z,42.40
2019-02-25T00:15:18.584Z,41.50
2019-02-25T00:17:48.869Z,41.00
2019-02-25T00:20:19.024Z,41.50
2019-02-25T00:22:49.411Z,41.50
2019-02-25T00:25:20.036Z,41.10
2019-02-25T00:27:50.227Z,41.50
2019-02-25T00:30:20.551Z,40.80
2019-02-25T00:32:50.739Z,40.30
2019-02-25T00:35:20.907Z,41.00
2019-02-25T00:37:51.092Z,41.00
2019-02-25T00:40:21.255Z,41.40
2019-02-25T00:42:51.441Z,43.80
2019-02-25T00:45:21.604Z,43.80
2019-02-25T00:47:51.800Z,44.00
2019-02-25T00:50:23.100Z,42.70
2019-02-25T00:52:53.341Z,42.30
2019-02-25T00:55:23.443Z,42.00
2019-02-25T00:57:54.404Z,41.20
2019-02-25T01:00:26.005Z,41.10
2019-02-25T01:02:56.252Z,40.70
2019-02-25T01:05:26.413Z,40.80
2019-02-25T01:07:56.604Z,40.80
2019-02-25T01:10:26.836Z,40.10
2019-02-25T01:12:57.023Z,39.60
2019-02-25T01:15:27.188Z,39.70
2019-02-25T01:17:57.480Z,39.40
2019-02-25T01:20:27.659Z,39.30
2019-02-25T01:22:58.878Z,39.40
2019-02-25T01:25:29.054Z,39.60
2019-02-25T01:27:59.212Z,39.30
2019-02-25T01:30:29.387Z,39.20
2019-02-25T01:33:00.162Z,39.40
2019-02-25T01:35:32.015Z,39.50
2019-02-25T01:38:03.174Z,39.40
2019-02-25T01:40:33.359Z,38.90
2019-02-25T01:43:03.686Z,38.60
2019-02-25T01:45:34.067Z,38.70
2019-02-25T01:48:04.291Z,38.50
2019-02-25T01:50:34.576Z,38.70
2019-02-25T01:53:04.727Z,38.80
2019-02-25T01:55:34.915Z,38.90
2019-02-25T01:58:05.069Z,39.60
2019-02-25T02:00:35.315Z,40.20
2019-02-25T02:03:05.583Z,40.20
2019-02-25T02:05:35.864Z,40.30
2019-02-25T02:08:06.119Z,41.00
2019-02-25T02:10:36.404Z,41.60
2019-02-25T02:13:13.948Z,41.80
2019-02-25T02:15:38.454Z,42.40
2019-02-25T02:18:08.617Z,42.90
2019-02-25T02:20:39.300Z,43.20
2019-02-25T02:23:10.255Z,43.80
2019-02-25T02:25:40.443Z,44.10
2019-02-25T02:28:10.663Z,43.90
2019-02-25T02:30:40.844Z,44.00
2019-02-25T02:33:11.013Z,43.90
2019-02-25T02:35:41.587Z,43.70
2019-02-25T02:38:11.811Z,43.80
2019-02-25T02:40:42.015Z,43.40
2019-02-25T02:43:12.766Z,43.10
2019-02-25T02:45:49.118Z,43.00
2019-02-25T02:48:34.326Z,42.50
2019-02-25T02:51:04.582Z,42.80
2019-02-25T02:53:34.739Z,43.90
2019-02-25T02:56:05.935Z,43.80
2019-02-25T02:58:36.499Z,43.40
2019-02-25T03:01:06.744Z,43.70
2019-02-25T03:03:36.899Z,43.20
2019-02-25T03:06:07.083Z,43.70
2019-02-25T03:08:37.441Z,44.20
2019-02-25T03:11:07.714Z,44.10
2019-02-25T03:13:38.077Z,44.80
2019-02-25T03:16:08.369Z,44.10
2019-02-25T03:18:38.787Z,44.80
2019-02-25T03:21:08.975Z,44.80
2019-02-25T03:23:39.136Z,44.10
2019-02-25T03:26:09.329Z,44.50
2019-02-25T03:28:39.480Z,44.90
2019-02-25T03:31:09.764Z,45.30
2019-02-25T03:33:40.327Z,45.50
2019-02-25T03:36:10.715Z,45.70
2019-02-25T03:38:40.976Z,45.60
2019-02-25T03:41:11.158Z,45.90
2019-02-25T03:43:41.316Z,45.70
2019-02-25T03:46:11.697Z,45.60
2019-02-25T03:48:42.956Z,45.90
2019-02-25T03:51:13.850Z,45.60
2019-02-25T03:53:44.012Z,45.40
2019-02-25T03:56:14.268Z,45.40
2019-02-25T03:58:44.422Z,45.60
2019-02-25T04:01:15.216Z,45.80
2019-02-25T04:03:45.374Z,46.40
2019-02-25T04:06:15.840Z,46.00
2019-02-25T04:08:46.131Z,46.60
2019-02-25T04:11:17.028Z,47.50
2019-02-25T04:13:47.280Z,47.10
2019-02-25T04:16:17.525Z,46.70
2019-02-25T04:18:47.703Z,47.00
2019-02-25T04:21:18.041Z,47.00
2019-02-25T04:23:48.222Z,47.40
2019-02-25T04:26:18.492Z,47.30
2019-02-25T04:28:48.670Z,47.30
2019-02-25T04:31:19.037Z,47.50
2019-02-25T04:33:49.211Z,47.30
2019-02-25T04:36:19.367Z,47.50
2019-02-25T04:38:49.552Z,47.00
2019-02-25T04:41:19.813Z,47.10
2019-02-25T04:43:50.551Z,47.30
2019-02-25T04:46:20.690Z,46.70
2019-02-25T04:48:51.167Z,46.20
2019-02-25T04:51:21.825Z,46.10
2019-02-25T04:53:52.303Z,46.00
2019-02-25T04:56:23.702Z,44.50
2019-02-25T04:58:54.466Z,44.10
2019-02-25T05:01:24.624Z,44.10
2019-02-25T05:03:55.003Z,44.10
2019-02-25T05:06:25.176Z,42.90
2019-02-25T05:08:55.364Z,42.50
2019-02-25T05:11:27.268Z,41.90
2019-02-25T05:13:57.434Z,42.10
2019-02-25T05:16:27.595Z,41.80
2019-02-25T05:18:57.963Z,42.30
2019-02-25T05:21:28.420Z,42.90
2019-02-25T05:23:58.600Z,43.10
2019-02-25T05:26:28.765Z,42.30
2019-02-25T05:28:59.648Z,42.90
2019-02-25T05:31:29.799Z,44.20
2019-02-25T05:34:00.100Z,44.10
2019-02-25T05:36:30.227Z,44.30
2019-02-25T05:39:00.417Z,44.90
2019-02-25T05:41:30.666Z,44.60
2019-02-25T05:44:00.847Z,44.40
2019-02-25T05:46:31.010Z,44.50
2019-02-25T05:49:01.226Z,43.90
2019-02-25T05:51:31.359Z,44.30
2019-02-25T05:54:01.540Z,44.60
2019-02-25T05:56:32.500Z,44.50
2019-02-25T05:59:02.780Z,44.60
2019-02-25T06:01:32.940Z,43.50
2019-02-25T06:04:03.315Z,44.20
2019-02-25T06:06:34.480Z,43.20
2019-02-25T06:09:06.496Z,43.40
2019-02-25T06:11:36.852Z,42.90
2019-02-25T06:14:07.032Z,41.00
2019-02-25T06:16:37.189Z,40.10
2019-02-25T06:19:07.465Z,41.40
2019-02-25T06:21:37.640Z,40.90
2019-02-25T06:24:08.323Z,40.70
2019-02-25T06:26:38.763Z,41.40
2019-02-25T06:29:08.960Z,41.10
2019-02-25T06:31:39.119Z,42.50
2019-02-25T06:34:09.299Z,42.00
2019-02-25T06:36:39.451Z,42.50
2019-02-25T06:39:09.735Z,42.60
2019-02-25T06:41:40.499Z,42.70
2019-02-25T06:44:10.879Z,43.40
2019-02-25T06:46:41.340Z,43.00
2019-02-25T06:49:11.515Z,44.20
2019-02-25T06:51:41.683Z,44.00
2019-02-25T06:54:12.159Z,44.60
2019-02-25T06:56:42.419Z,46.60
2019-02-25T06:59:12.604Z,44.20
2019-02-25T07:01:42.751Z,45.30
2019-02-25T07:04:17.723Z,45.70
2019-02-25T07:06:55.222Z,45.70
2019-02-25T07:09:33.126Z,46.60
2019-02-25T07:12:16.599Z,47.60
2019-02-25T07:14:51.111Z,47.60
2019-02-25T07:17:28.788Z,48.90
2019-02-25T07:20:08.174Z,48.60
2019-02-25T07:22:51.844Z,45.00
2019-02-25T07:25:23.672Z,43.90
2019-02-25T07:28:11.892Z,44.90
2019-02-25T07:30:43.724Z,44.00
2019-02-25T07:33:27.396Z,43.70
2019-02-25T07:36:10.892Z,44.70
2019-02-25T07:38:45.145Z,42.10
2019-02-25T07:41:40.202Z,42.20
2019-02-25T07:44:20.823Z,41.00
2019-02-25T07:46:55.787Z,40.30
2019-02-25T07:49:30.552Z,40.50
2019-02-25T07:52:02.355Z,40.20
2019-02-25T07:54:34.176Z,39.40
2019-02-25T07:57:05.975Z,38.90
2019-02-25T07:59:40.844Z,38.40
2019-02-25T08:02:29.044Z,37.20
2019-02-25T08:05:00.961Z,37.40
2019-02-25T08:07:41.552Z,35.70
2019-02-25T08:10:24.953Z,35.20
2019-02-25T08:12:56.747Z,35.50
2019-02-25T08:15:31.232Z,34.20
2019-02-25T08:18:17.663Z,34.60
2019-02-25T08:20:55.331Z,33.40
2019-02-25T08:23:27.332Z,33.90
2019-02-25T08:26:02.214Z,35.00
2019-02-25T08:28:51.787Z,34.50
2019-02-25T08:31:23.603Z,34.80
2019-02-25T08:34:18.453Z,34.50
2019-02-25T08:37:02.403Z,34.70
2019-02-25T08:39:30.983Z,35.60
2019-02-25T08:42:14.712Z,34.30
2019-02-25T08:44:49.186Z,34.30
2019-02-25T08:47:23.976Z,34.40
2019-02-25T08:49:55.314Z,34.80
2019-02-25T08:52:25.507Z,34.50
2019-02-25T08:54:55.651Z,34.80
2019-02-25T08:57:26.096Z,34.40
2019-02-25T08:59:56.347Z,35.30
2019-02-25T09:02:26.601Z,35.60
2019-02-25T09:04:56.748Z,36.30
2019-02-25T09:07:27.131Z,36.20
2019-02-25T09:09:57.288Z,37.00
2019-02-25T09:12:27.571Z,37.00
2019-02-25T09:14:58.061Z,37.40
2019-02-25T09:17:28.246Z,37.70
2019-02-25T09:19:58.368Z,38.40
2019-02-25T09:22:28.652Z,39.00
2019-02-25T09:24:58.906Z,38.70
2019-02-25T09:27:29.294Z,39.70
2019-02-25T09:30:02.231Z,39.80
2019-02-25T09:32:32.419Z,40.60
2019-02-25T09:35:02.575Z,41.10
2019-02-25T09:37:32.762Z,40.90
2019-02-25T09:40:02.983Z,41.60
2019-02-25T09:42:33.155Z,41.50
2019-02-25T09:45:03.795Z,41.40
2019-02-25T09:47:33.975Z,40.70
2019-02-25T09:50:06.159Z,40.00
2019-02-25T09:52:36.323Z,40.70
2019-02-25T09:55:09.587Z,41.30
2019-02-25T09:57:39.835Z,42.40
2019-02-25T10:00:15.696Z,42.80
2019-02-25T10:02:46.162Z,43.30
2019-02-25T10:05:16.585Z,43.50
2019-02-25T10:07:46.767Z,43.70
2019-02-25T10:10:18.738Z,44.80
2019-02-25T10:12:49.612Z,44.60
2019-02-25T10:15:27.999Z,44.70
2019-02-25T10:17:58.188Z,44.70
2019-02-25T10:20:28.357Z,45.50
2019-02-25T10:22:58.640Z,45.50
2019-02-25T10:25:28.807Z,46.00
2019-02-25T10:27:59.000Z,45.60
2019-02-25T10:30:29.155Z,46.20
2019-02-25T10:33:00.837Z,46.70
2019-02-25T10:35:31.145Z,46.50
2019-02-25T10:38:03.137Z,48.20
2019-02-25T10:40:33.103Z,49.50
2019-02-25T10:43:03.275Z,48.70
2019-02-25T10:45:35.205Z,49.30
2019-02-25T10:48:05.611Z,49.70
2019-02-25T10:50:36.082Z,51.10
2019-02-25T10:53:07.668Z,50.40
2019-02-25T10:55:44.938Z,51.00
2019-02-25T10:58:15.459Z,51.20
2019-02-25T11:00:46.060Z,52.40
2019-02-25T11:03:17.894Z,52.80
2019-02-25T11:05:48.203Z,52.60
2019-02-25T11:08:19.859Z,52.10
2019-02-25T11:10:53.184Z,52.10
2019-02-25T11:13:23.473Z,52.30
2019-02-25T11:15:53.727Z,53.00
2019-02-25T11:18:26.236Z,53.70
2019-02-25T11:20:56.214Z,52.80
2019-02-25T11:23:26.491Z,53.20
2019-02-25T11:25:57.969Z,53.00
2019-02-25T11:28:28.445Z,52.90
2019-02-25T11:30:58.769Z,52.60
2019-02-25T11:33:30.263Z,52.30
2019-02-25T11:36:00.803Z,53.60
2019-02-25T11:38:34.221Z,52.90
2019-02-25T11:41:04.787Z,52.80
2019-02-25T11:43:35.008Z,52.70
2019-02-25T11:46:05.315Z,52.30
2019-02-25T11:48:35.563Z,52.70
2019-02-25T11:51:05.872Z,52.60
2019-02-25T11:53:36.041Z,52.00
2019-02-25T11:56:07.059Z,52.20
2019-02-25T11:58:37.211Z,52.90
2019-02-25T12:01:07.667Z,53.50
2019-02-25T12:03:37.828Z,53.10
2019-02-25T12:06:08.007Z,53.10
2019-02-25T12:08:38.275Z,53.50
2019-02-25T12:11:08.765Z,53.10
2019-02-25T12:13:38.920Z,52.70
2019-02-25T12:16:09.122Z,52.20
2019-02-25T12:18:39.382Z,52.30
2019-02-25T12:21:09.662Z,51.40
2019-02-25T12:23:40.731Z,51.40
2019-02-25T12:26:10.915Z,51.50
2019-02-25T12:28:41.080Z,51.40
2019-02-25T12:31:11.431Z,51.40
2019-02-25T12:33:41.687Z,50.50
2019-02-25T12:36:13.711Z,50.10
2019-02-25T12:38:43.718Z,51.10
2019-02-25T12:44:02.363Z,50.50
2019-02-25T12:46:32.600Z,50.70
2019-02-25T12:49:03.384Z,49.40
2019-02-25T12:51:33.552Z,49.90
2019-02-25T12:54:03.931Z,48.60
2019-02-25T12:56:34.175Z,49.30
2019-02-25T12:59:05.217Z,48.50
2019-02-25T13:01:35.542Z,48.70
2019-02-25T13:04:05.703Z,49.90
2019-02-25T13:06:36.092Z,50.80
2019-02-25T13:09:09.319Z,49.50
2019-02-25T13:11:39.988Z,49.90
2019-02-25T13:14:10.162Z,50.90
2019-02-25T13:16:40.343Z,51.70
2019-02-25T13:19:10.495Z,51.50
2019-02-25T13:21:40.785Z,51.80
2019-02-25T13:24:10.943Z,51.60
2019-02-25T13:26:41.131Z,50.80
2019-02-25T13:29:11.305Z,51.40
2019-02-25T13:31:41.478Z,52.30
2019-02-25T13:34:11.848Z,51.70
2019-02-25T13:36:43.623Z,51.90
2019-02-25T13:39:13.781Z,52.30
2019-02-25T13:41:44.163Z,52.30
2019-02-25T13:44:14.424Z,52.70
2019-02-25T13:46:44.604Z,53.00
2019-02-25T13:49:14.783Z,53.40
2019-02-25T13:51:44.954Z,53.20
2019-02-25T13:54:15.124Z,53.30
2019-02-25T13:56:45.311Z,53.60
2019-02-25T13:59:15.643Z,54.20
2019-02-25T14:01:45.820Z,53.80
2019-02-25T14:04:15.987Z,54.10
2019-02-25T14:06:46.203Z,54.10
2019-02-25T14:09:16.423Z,54.50
2019-02-25T14:11:46.603Z,54.50
2019-02-25T14:14:16.869Z,54.50
2019-02-25T14:16:47.143Z,54.70
2019-02-25T14:19:17.309Z,55.40
2019-02-25T14:21:47.687Z,54.50
2019-02-25T14:24:18.514Z,54.40
2019-02-25T14:26:49.779Z,54.90
2019-02-25T14:29:20.112Z,54.80
2019-02-25T14:31:51.194Z,54.70
2019-02-25T14:34:21.467Z,55.00
2019-02-25T14:36:52.578Z,54.80
2019-02-25T14:39:27.750Z,54.90
2019-02-25T14:41:58.898Z,54.50
2019-02-25T14:44:32.396Z,54.80
2019-02-25T14:47:01.123Z,55.00
2019-02-25T14:49:32.727Z,55.00
2019-02-25T14:52:03.353Z,54.90
2019-02-25T14:54:34.248Z,55.80
2019-02-25T14:57:04.732Z,55.80
2019-02-25T14:59:34.888Z,56.00
2019-02-25T15:02:06.290Z,56.90
2019-02-25T15:04:38.003Z,57.80
2019-02-25T15:07:28.293Z,58.30
2019-02-25T15:10:11.086Z,58.10
2019-02-25T15:12:56.579Z,57.90
2019-02-25T15:15:39.087Z,58.10
2019-02-25T15:18:22.178Z,58.40
2019-02-25T15:21:06.665Z,59.00
2019-02-25T15:23:49.384Z,59.40
2019-02-25T15:26:31.403Z,60.20
2019-02-25T15:29:14.055Z,60.70
2019-02-25T15:31:57.477Z,60.50
2019-02-25T15:34:41.100Z,60.60
2019-02-25T15:37:28.582Z,60.40
2019-02-25T15:40:14.016Z,60.60
2019-02-25T15:42:57.163Z,61.50
2019-02-25T15:45:42.119Z,61.00
2019-02-25T15:48:24.397Z,61.50
2019-02-25T15:51:07.220Z,61.30
2019-02-25T15:53:48.988Z,62.00
2019-02-25T15:56:39.115Z,62.30
2019-02-25T15:59:21.872Z,62.60
2019-02-25T16:02:05.636Z,62.90
2019-02-25T16:04:48.437Z,63.30
2019-02-25T16:07:31.699Z,63.60
2019-02-25T16:10:16.277Z,63.80
2019-02-25T16:12:59.954Z,64.30
2019-02-25T16:15:42.862Z,64.80
2019-02-25T16:18:25.312Z,65.30
2019-02-25T16:21:14.633Z,65.60
2019-02-25T16:23:59.299Z,65.70
2019-02-25T16:26:42.771Z,66.00
2019-02-25T16:29:24.912Z,66.20
2019-02-25T16:32:07.684Z,66.50
2019-02-25T16:34:52.151Z,66.60
2019-02-25T16:37:35.557Z,66.90
2019-02-25T16:40:18.164Z,67.30
2019-02-25T16:43:02.764Z,67.60
2019-02-25T16:45:47.030Z,67.70
2019-02-25T16:48:30.811Z,68.30
2019-02-25T16:51:13.998Z,68.40
2019-02-25T16:53:56.104Z,68.70
2019-02-25T16:56:38.232Z,68.90
2019-02-25T16:59:20.703Z,69.50
2019-02-25T17:02:04.652Z,69.70
2019-02-25T17:04:47.173Z,70.10
2019-02-25T17:07:29.108Z,70.50
2019-02-25T17:10:13.040Z,71.10
2019-02-25T17:12:55.277Z,71.60
2019-02-25T17:15:38.290Z,72.20
2019-02-25T17:18:22.407Z,72.70
2019-02-25T17:21:07.695Z,72.30
2019-02-25T17:23:51.606Z,71.20
2019-02-25T17:26:34.537Z,70.60
2019-02-25T17:29:16.440Z,71.60
2019-02-25T17:31:59.687Z,71.60
2019-02-25T17:34:43.782Z,71.50
2019-02-25T17:37:26.708Z,71.50
2019-02-25T17:40:11.293Z,72.10
2019-02-25T17:42:54.048Z,72.20
2019-02-25T17:45:38.875Z,72.70
2019-02-25T17:48:21.387Z,73.10
2019-02-25T17:51:04.423Z,73.30
2019-02-25T17:53:48.110Z,73.60
2019-02-25T17:56:30.439Z,74.00
2019-02-25T17:59:13.720Z,74.80
2019-02-25T18:01:56.663Z,75.40
2019-02-25T18:04:39.456Z,76.30
2019-02-25T18:07:21.827Z,76.80
2019-02-25T18:10:05.540Z,77.30
2019-02-25T18:12:48.861Z,77.60
2019-02-25T18:15:32.836Z,78.20
2019-02-25T18:18:17.747Z,79.40
2019-02-25T18:20:59.613Z,80.50
2019-02-25T18:23:41.756Z,81.10
2019-02-25T18:26:24.592Z,83.60
2019-02-25T18:29:09.305Z,85.50
2019-02-25T18:31:51.735Z,85.00
2019-02-25T18:34:36.454Z,86.00
2019-02-25T18:37:18.212Z,86.90
2019-02-25T18:40:00.228Z,88.30
2019-02-25T18:42:43.317Z,90.20
2019-02-25T18:45:26.901Z,91.30
2019-02-25T18:48:09.339Z,91.80
2019-02-25T18:50:53.080Z,92.00
2019-02-25T18:53:35.944Z,92.60
2019-02-25T18:56:18.375Z,93.30
2019-02-25T18:59:12.257Z,93.60
2019-02-25T19:02:00.109Z,94.40
2019-02-25T19:04:41.464Z,95.80
2019-02-25T19:07:26.826Z,97.50
2019-02-25T19:10:10.613Z,98.00
2019-02-25T19:12:53.866Z,99.90
2019-02-25T19:15:37.405Z,99.90
2019-02-25T19:18:20.083Z,99.90
2019-02-25T19:21:04.431Z,99.90
2019-02-25T19:23:48.585Z,99.90
2019-02-25T19:26:31.248Z,99.90
2019-02-25T19:29:15.256Z,99.90
2019-02-25T19:32:00.642Z,99.90
2019-02-25T19:34:41.156Z,99.90
2019-02-25T19:37:23.280Z,99.90
2019-02-25T19:40:11.874Z,99.90
2019-02-25T19:42:51.606Z,99.90
2019-02-25T19:45:36.402Z,99.90
2019-02-25T19:48:19.874Z,99.90
2019-02-25T19:51:04.241Z,99.90
2019-02-25T19:53:47.528Z,99.90
2019-02-25T19:56:28.055Z,99.90
2019-02-25T19:59:19.175Z,99.90
2019-02-25T20:02:22.617Z,99.90
2019-02-25T20:05:09.552Z,99.90
2019-02-25T20:07:49.815Z,99.90
2019-02-25T20:10:31.996Z,99.90
2019-02-25T20:13:14.000Z,99.90
2019-02-25T20:15:56.913Z,99.90
2019-02-25T20:18:40.286Z,99.90
2019-02-25T20:21:24.662Z,99.90
2019-02-25T20:24:07.718Z,99.90
2019-02-25T20:26:55.058Z,99.90
2019-02-25T20:29:36.109Z,99.90
2019-02-25T20:32:20.721Z,99.90
2019-02-25T20:35:03.229Z,99.90
2019-02-25T20:37:48.766Z,99.90
2019-02-25T20:40:30.508Z,99.90
2019-02-25T20:43:12.661Z,99.90
2019-02-25T20:45:56.453Z,99.90
2019-02-25T20:48:39.662Z,99.90
2019-02-25T20:51:22.786Z,99.90
2019-02-25T20:54:06.408Z,99.90
2019-02-25T20:56:50.722Z,99.90
2019-02-25T20:59:34.894Z,99.90
2019-02-25T21:02:18.811Z,99.90
2019-02-25T21:05:01.888Z,99.90
2019-02-25T21:07:43.971Z,99.90
2019-02-25T21:10:27.892Z,99.90
2019-02-25T21:13:11.118Z,99.90
2019-02-25T21:15:53.540Z,99.90
2019-02-25T21:18:34.187Z,99.90
2019-02-25T21:21:23.675Z,99.90
2019-02-25T21:24:26.928Z,99.90
2019-02-25T21:27:10.457Z,99.90
2019-02-25T21:29:54.833Z,99.90
2019-02-25T21:32:37.469Z,99.90
2019-02-25T21:35:23.508Z,99.90
2019-02-25T21:38:04.189Z,99.90
2019-02-25T21:40:48.437Z,99.90
2019-02-25T21:43:31.984Z,99.90
2019-02-25T21:46:17.904Z,99.90
2019-02-25T21:49:01.620Z,99.90
2019-02-25T21:51:43.729Z,99.90
2019-02-25T21:54:27.196Z,99.90
2019-02-25T21:57:10.001Z,99.90
2019-02-25T21:59:54.268Z,99.90
2019-02-25T22:02:39.234Z,99.90
2019-02-25T22:05:21.308Z,99.90
2019-02-25T22:08:06.362Z,99.90
2019-02-25T22:10:48.980Z,99.90
2019-02-25T22:13:31.955Z,99.90
2019-02-25T22:16:12.528Z,99.90
2019-02-25T22:19:02.043Z,99.90
2019-02-25T22:21:53.593Z,99.90
2019-02-25T22:24:36.187Z,99.90
2019-02-25T22:27:20.641Z,99.90
2019-02-25T22:30:04.733Z,99.90
2019-02-25T22:32:47.744Z,99.90
2019-02-25T22:35:33.132Z,99.90
2019-02-25T22:38:14.595Z,99.90
2019-02-25T22:40:59.707Z,99.90
2019-02-25T22:43:43.721Z,99.90
2019-02-25T22:46:28.158Z,99.90
2019-02-25T22:49:09.503Z,99.90
2019-02-25T22:51:55.765Z,99.90
2019-02-25T22:54:39.094Z,99.90
2019-02-25T22:57:22.634Z,99.90
2019-02-25T23:00:06.396Z,99.90
2019-02-25T23:02:49.798Z,99.90
2019-02-25T23:05:32.996Z,99.90
2019-02-25T23:08:18.083Z,99.90
2019-02-25T23:11:00.529Z,99.90
2019-02-25T23:13:45.572Z,99.90
2019-02-25T23:16:27.448Z,99.90
2019-02-25T23:19:11.904Z,99.90
2019-02-25T23:21:54.128Z,99.90
2019-02-25T23:24:37.428Z,99.90
2019-02-25T23:27:19.995Z,99.90
2019-02-25T23:30:02.003Z,99.90
2019-02-25T23:32:44.232Z,99.90
2019-02-25T23:35:26.542Z,99.90
2019-02-25T23:38:09.348Z,99.90
2019-02-25T23:40:51.284Z,99.90
2019-02-25T23:43:36.038Z,99.90
2019-02-25T23:46:17.476Z,99.90
2019-02-25T23:49:00.089Z,99.90
2019-02-25T23:51:43.668Z,99.90
2019-02-25T23:54:28.064Z,99.90
2019-02-25T23:57:10.760Z,99.90
2019-02-25T23:59:54.106Z,99.90
